Charles Alfred — WYU9726 — position and weather

sailwx.info

Track history (hours):
 
Tides and Currents Weather Stations Pressure Air Temp Water Temp Dewpoint Dewpoint Depression Visibility Wind Speed Wind Dir Waves Ship Positions

Charles Alfred

Owner: CHARLES ALFRED INC, HACKBERRY, LA. More information available from US FCC via Universal Licensing System and Coast Guard Vessel Documentation Center.

Last reported at 2018-Feb-19 14:00 UTC. Time now 2018-Feb-19 14:18 UTC.
Position N 29°43' W 095°16'.

Length 16 m; draft 1 m.

Type: Towing. MMSI: 366973420.

Date/timePositionNaut miles runAvg speedWind from/ knotsBaromVisibWave heightAir tempDewpointWater temp
2018-Feb-19 14:00N 29°43' W 095°16'0 0.0
2018-Feb-19 13:26N 29°43' W 095°16'0 0.0
2018-Feb-19 12:57N 29°43' W 095°16'0 0.0
2018-Feb-19 10:18N 29°43' W 095°16'0 0.0
2018-Feb-19 09:53N 29°43' W 095°16'0 0.0
2018-Feb-19 09:30N 29°43' W 095°16'0 0.0
2018-Feb-19 08:47N 29°43' W 095°16'0 0.0
2018-Feb-19 08:30N 29°43' W 095°16'0 0.0
2018-Feb-19 08:01N 29°43' W 095°16'0 0.0
2018-Feb-19 07:31N 29°43' W 095°16'0 0.0
2018-Feb-19 07:00N 29°43' W 095°16'0 0.0
2018-Feb-19 06:30N 29°43' W 095°16'0 0.0
2018-Feb-19 06:00N 29°43' W 095°16'0 0.0
2018-Feb-19 05:30N 29°43' W 095°16'0 0.0
2018-Feb-19 04:52N 29°43' W 095°16'11 0.4
2018-Feb-18 00:22N 29°45' W 095°04'3 7.3
2018-Feb-17 23:59N 29°43' W 095°01'4 7.3
2018-Feb-17 23:30N 29°40' W 094°59'4 7.9
2018-Feb-17 23:00N 29°37' W 094°57'4 8.0
2018-Feb-17 22:30N 29°33' W 094°55'26 0.5
2018-Feb-15 21:59N 29°13' W 095°13'  
Track history (hours):
 
Tides and Currents Weather Stations Pressure Air Temp Water Temp Dewpoint Dewpoint Depression Visibility Wind Speed Wind Dir Waves Ship Positions

Charles Alfred

Owner: CHARLES ALFRED INC, HACKBERRY, LA. More information available from US FCC via Universal Licensing System and Coast Guard Vessel Documentation Center.

Last reported at 2018-Feb-19 14:00 UTC. Time now 2018-Feb-19 14:18 UTC.
Position N 29°43' W 095°16'.

Length 16 m; draft 1 m.

Type: Towing. MMSI: 366973420.

Date/timePositionNaut miles runAvg speedWind from/ knotsBaromVisibWave heightAir tempDewpointWater temp
2018-Feb-19 14:00N 29°43' W 095°16'0 0.0
2018-Feb-19 13:26N 29°43' W 095°16'0 0.0
2018-Feb-19 12:57N 29°43' W 095°16'0 0.0
2018-Feb-19 10:18N 29°43' W 095°16'0 0.0
2018-Feb-19 09:53N 29°43' W 095°16'0 0.0
2018-Feb-19 09:30N 29°43' W 095°16'0 0.0
2018-Feb-19 08:47N 29°43' W 095°16'0 0.0
2018-Feb-19 08:30N 29°43' W 095°16'0 0.0
2018-Feb-19 08:01N 29°43' W 095°16'0 0.0
2018-Feb-19 07:31N 29°43' W 095°16'0 0.0
2018-Feb-19 07:00N 29°43' W 095°16'0 0.0
2018-Feb-19 06:30N 29°43' W 095°16'0 0.0
2018-Feb-19 06:00N 29°43' W 095°16'0 0.0
2018-Feb-19 05:30N 29°43' W 095°16'0 0.0
2018-Feb-19 04:52N 29°43' W 095°16'11 0.4
2018-Feb-18 00:22N 29°45' W 095°04'3 7.3
2018-Feb-17 23:59N 29°43' W 095°01'4 7.3
2018-Feb-17 23:30N 29°40' W 094°59'4 7.9
2018-Feb-17 23:00N 29°37' W 094°57'4 8.0
2018-Feb-17 22:30N 29°33' W 094°55'26 0.5
2018-Feb-15 21:59N 29°13' W 095°13'  

Dump ship's entire track history